Capitol, MT

12:39 PM MDT on April 27, 2015 (GMT -0600)
MesoWest | | Change Station
CLOSE
Current Station
Personal Weather Station
Location: Hammond, MT
Elevation: 3687 ft
Nearby Weather Stations

Elev 3687 ft 45.31 °N, 104.47 °W | Updated 31 minutes ago

Overcast
Overcast
40 °F
Feels Like 33 °F
N
11
Wind Variable Wind from NW
Gusts 16.0 mph

Today
High -- | Low -- °F
--% Chance of Precip.
Yesterday
High -- | Low -- °F
Precip. -- in
5:51 AM 7:58 PM
Waxing Gibbous, 67% visible
Pressure 30.34 in
Visibility 10.0 miles
Clouds Overcast 900 ft
Windchill 33 °F
Dew Point 37 °F
Humidity 88%
Rainfall in
Snow Depth Not available.
UV 3 out of 12
Pollen 3.50 out of 12
Air Quality Not available.
Flu Activity Local Activity
METAR KW43 271815Z AUTO 00000KT 10SM -DZ OVC009 04/02 A3034 RMK AO2

More Conditions Fewer Conditions

Pressure 30.34 in
Visibility 10.0 miles
Clouds Overcast 900 ft
Windchill 33 °F
Dew Point 37 °F
Humidity 88%
Rainfall in
Snow Depth Not available.
UV 3 out of 12
Pollen 3.50 out of 12
Air Quality Not available.
Flu Activity Local Activity
METAR KW43 271815Z AUTO 00000KT 10SM -DZ OVC009 04/02 A3034 RMK AO2

More Conditions Fewer Conditions

10-Day Weather Forecast

Almanac

Astronomy

Apr. 27, 2015 Rise Set
Actual Time
Civil Twilight
Nautical Twilight
Astronomical Twilight
Moon
Length of Visible Light
Length of Day
Tomorrow will be .
, % of the Moon is Illuminated

Today's Extremes

State Highs State Lows

Community

WunderPhotos

Upload Photos

1,817,395 photos uploaded!

WunderBlogs® & News

Nearby

Air Quality

  Air Quality AQ Index Pollutant
Not available.

Snow Depth

Station Depth Elevation

Earthquake Activity

City Distance Mag. Time & Date
Minimum magnitude displayed is 2.5.

Coastal Water Temperatures

Place Temperature

Stations

Nearby Weather Stations

Station Location Temp. Windchill Dew Point Humidity Wind Precip. Elev Updated Type